Time;durP1;ratioP1;P1;durP2;ratioP2;P2;SDS_P1;SDS_P2;PMS_P1;PMS_P2;Temp;Humidity;BMP_temperature;BMP_pressure;BME280_temperature;BME280_humidity;BME280_pressure;Samples;Min_cycle;Max_cycle;Signal;HPM_P1;HPM_P2
2021/08/30 00:02:23;;;;;;;13.43;9.45;;;;;;;;;;5058650;28;20498;-83
2021/08/30 00:04:49;;;;;;;16.13;9.73;;;;;;;;;;5077504;28;20025;-83
2021/08/30 00:07:15;;;;;;;13.55;10.10;;;;;;;;;;5077878;28;20031;-82
2021/08/30 00:09:41;;;;;;;17.70;9.80;;;;;;;;;;5077568;28;20070;-83
2021/08/30 00:12:08;;;;;;;15.40;10.95;;;;;;;;;;5086718;28;20029;-81
2021/08/30 00:14:34;;;;;;;14.00;10.43;;;;;;;;;;5094926;28;20074;-81
2021/08/30 00:17:00;;;;;;;19.30;10.95;;;;;;;;;;5093564;28;20079;-81
2021/08/30 00:19:28;;;;;;;18.25;11.40;;;;;;;;;;5091787;28;20040;-81
2021/08/30 00:21:54;;;;;;;16.90;11.35;;;;;;;;;;5092192;28;20052;-81
2021/08/30 00:24:24;;;;;;;17.05;10.30;;;;;;;;;;5092777;28;20028;-81
2021/08/30 00:26:50;;;;;;;16.00;11.68;;;;;;;;;;5090810;28;20591;-80
2021/08/30 00:29:16;;;;;;;19.40;11.88;;;;;;;;;;5087261;28;20043;-81
2021/08/30 00:31:42;;;;;;;24.42;12.38;;;;;;;;;;5087835;28;20088;-80
2021/08/30 00:34:08;;;;;;;19.17;12.50;;;;;;;;;;5087208;28;20052;-81
2021/08/30 00:36:34;;;;;;;18.38;12.88;;;;;;;;;;5085455;28;20049;-81
2021/08/30 00:39:00;;;;;;;22.58;13.27;;;;;;;;;;5084515;28;20081;-81
2021/08/30 00:41:26;;;;;;;18.83;13.38;;;;;;;;;;5087104;28;20048;-80
2021/08/30 00:43:53;;;;;;;20.35;13.52;;;;;;;;;;5087227;28;20063;-82
2021/08/30 00:46:19;;;;;;;20.63;12.48;;;;;;;;;;5088241;28;20035;-82
2021/08/30 00:48:48;;;;;;;21.38;13.55;;;;;;;;;;5088480;28;20024;-82
2021/08/30 00:51:24;;;;;;;19.48;12.63;;;;;;;;;;5090716;28;20032;-81
2021/08/30 00:53:50;;;;;;;15.75;11.95;;;;;;;;;;5089185;28;20088;-81
2021/08/30 00:56:16;;;;;;;19.33;13.57;;;;;;;;;;5087787;28;20025;-82
2021/08/30 00:58:42;;;;;;;22.80;13.10;;;;;;;;;;5085988;28;20028;-81
2021/08/30 01:01:09;;;;;;;19.45;12.85;;;;;;;;;;5086020;28;20087;-81
2021/08/30 01:03:35;;;;;;;18.15;12.15;;;;;;;;;;5085675;28;20016;-81
2021/08/30 01:06:06;;;;;;;17.35;12.27;;;;;;;;;;5086865;28;20020;-80
2021/08/30 01:08:33;;;;;;;19.42;12.52;;;;;;;;;;5085104;28;20021;-81
2021/08/30 01:11:07;;;;;;;17.83;11.43;;;;;;;;;;5083508;28;20076;-81
2021/08/30 01:13:34;;;;;;;20.85;12.13;;;;;;;;;;5086227;28;20028;-81
2021/08/30 01:16:02;;;;;;;17.45;11.65;;;;;;;;;;5085552;28;20071;-80
2021/08/30 01:18:29;;;;;;;16.95;11.45;;;;;;;;;;5084152;28;20497;-81
2021/08/30 01:21:02;;;;;;;17.85;11.68;;;;;;;;;;5083373;28;20370;-80
2021/08/30 01:23:29;;;;;;;15.68;11.50;;;;;;;;;;5084962;28;20025;-81
2021/08/30 01:25:58;;;;;;;18.92;12.05;;;;;;;;;;5084580;28;20028;-80
2021/08/30 01:28:25;;;;;;;15.90;11.93;;;;;;;;;;5083802;28;20081;-80
2021/08/30 01:30:52;;;;;;;14.70;11.73;;;;;;;;;;5083514;28;20411;-80
2021/08/30 01:33:18;;;;;;;19.35;11.43;;;;;;;;;;5083491;28;20028;-81
2021/08/30 01:35:44;;;;;;;19.27;11.85;;;;;;;;;;5083922;28;20060;-80
2021/08/30 01:38:11;;;;;;;17.63;11.95;;;;;;;;;;5084198;28;20062;-81
2021/08/30 01:40:38;;;;;;;15.27;11.55;;;;;;;;;;5082994;28;20064;-81
2021/08/30 01:43:05;;;;;;;14.93;11.20;;;;;;;;;;5083050;28;20100;-81
2021/08/30 01:45:32;;;;;;;17.60;11.93;;;;;;;;;;5082519;28;20122;-81
2021/08/30 01:47:59;;;;;;;15.63;12.00;;;;;;;;;;5062900;28;20579;-81
2021/08/30 01:50:25;;;;;;;16.23;11.50;;;;;;;;;;5061943;28;20033;-81
2021/08/30 01:52:52;;;;;;;16.80;11.98;;;;;;;;;;5061331;28;20048;-81
2021/08/30 02:03:14;;;;;;;15.75;11.30;;;;;;;;;;5081366;28;20028;-81
2021/08/30 02:05:41;;;;;;;15.32;10.20;;;;;;;;;;5082238;28;20078;-82
2021/08/30 02:08:07;;;;;;;19.95;11.50;;;;;;;;;;5084373;28;20021;-81
2021/08/30 02:10:33;;;;;;;15.15;10.57;;;;;;;;;;5084050;28;20039;-81
2021/08/30 02:12:59;;;;;;;14.23;10.13;;;;;;;;;;5085790;28;20033;-81
2021/08/30 02:15:26;;;;;;;15.98;10.20;;;;;;;;;;5082916;28;20040;-83
2021/08/30 02:17:55;;;;;;;13.75;9.77;;;;;;;;;;5084266;28;20092;-82
2021/08/30 02:20:25;;;;;;;14.75;9.90;;;;;;;;;;5083857;28;20092;-82
2021/08/30 02:22:51;;;;;;;14.05;9.60;;;;;;;;;;5090974;28;20075;-82
2021/08/30 02:25:22;;;;;;;13.40;9.90;;;;;;;;;;5089970;28;20044;-83
2021/08/30 02:27:49;;;;;;;12.27;9.05;;;;;;;;;;5090578;28;20029;-83
2021/08/30 02:30:22;;;;;;;14.50;9.32;;;;;;;;;;5090410;28;20095;-83
2021/08/30 02:32:52;;;;;;;11.90;9.38;;;;;;;;;;5092476;28;20028;-83
2021/08/30 02:35:21;;;;;;;14.18;9.52;;;;;;;;;;5093782;28;20039;-83
2021/08/30 02:37:49;;;;;;;17.48;10.32;;;;;;;;;;5092692;28;20036;-83
2021/08/30 02:40:16;;;;;;;16.13;10.00;;;;;;;;;;5092991;28;20032;-82
2021/08/30 02:42:42;;;;;;;14.85;10.32;;;;;;;;;;5089210;28;20052;-83
2021/08/30 02:45:08;;;;;;;13.00;9.50;;;;;;;;;;5089437;28;20042;-84
2021/08/30 02:47:35;;;;;;;14.38;9.45;;;;;;;;;;5088879;28;20047;-83
2021/08/30 02:50:02;;;;;;;13.20;9.38;;;;;;;;;;5088200;28;20036;-83
2021/08/30 02:52:29;;;;;;;14.57;10.60;;;;;;;;;;5088826;28;20393;-83
2021/08/30 02:54:56;;;;;;;16.45;9.45;;;;;;;;;;5089188;28;20041;-83
2021/08/30 02:57:22;;;;;;;19.55;10.20;;;;;;;;;;5087252;28;20032;-82
2021/08/30 02:59:50;;;;;;;12.77;9.45;;;;;;;;;;5088767;28;20048;-83
2021/08/30 03:02:16;;;;;;;15.57;10.15;;;;;;;;;;5089150;28;20020;-82
2021/08/30 03:04:43;;;;;;;14.40;10.05;;;;;;;;;;5088121;28;20084;-83
2021/08/30 03:07:09;;;;;;;14.65;9.18;;;;;;;;;;5087183;28;20039;-83
2021/08/30 03:09:35;;;;;;;16.88;10.40;;;;;;;;;;5086621;28;20032;-83
2021/08/30 03:12:02;;;;;;;15.48;9.75;;;;;;;;;;5086007;28;20036;-83
2021/08/30 03:14:28;;;;;;;15.23;10.30;;;;;;;;;;5087943;28;20080;-83
2021/08/30 03:16:56;;;;;;;15.85;11.02;;;;;;;;;;5087079;28;20064;-83
2021/08/30 03:19:24;;;;;;;15.55;10.43;;;;;;;;;;5087049;28;20039;-83
2021/08/30 03:21:50;;;;;;;13.75;10.02;;;;;;;;;;5087742;28;20119;-83
2021/08/30 03:24:19;;;;;;;14.80;11.35;;;;;;;;;;5086427;28;20047;-83
2021/08/30 03:26:46;;;;;;;17.05;10.52;;;;;;;;;;5086176;28;20111;-83
2021/08/30 03:29:12;;;;;;;13.63;9.98;;;;;;;;;;5084529;28;20029;-83
2021/08/30 03:31:39;;;;;;;14.85;11.00;;;;;;;;;;5085609;28;20050;-83
2021/08/30 03:34:05;;;;;;;14.85;10.25;;;;;;;;;;5084659;28;20124;-83
2021/08/30 03:36:32;;;;;;;18.13;10.95;;;;;;;;;;5085220;28;20043;-83
2021/08/30 03:38:58;;;;;;;19.73;11.57;;;;;;;;;;5084605;28;20032;-83
2021/08/30 03:41:25;;;;;;;15.52;10.88;;;;;;;;;;5084678;28;20135;-83
2021/08/30 03:43:51;;;;;;;18.67;11.32;;;;;;;;;;5084457;28;20115;-83
2021/08/30 03:46:18;;;;;;;16.52;10.85;;;;;;;;;;5084802;28;20028;-83
2021/08/30 03:48:44;;;;;;;15.93;11.02;;;;;;;;;;5085881;28;20078;-83
2021/08/30 03:51:11;;;;;;;16.50;11.02;;;;;;;;;;5085720;28;20029;-83
2021/08/30 03:53:37;;;;;;;19.80;11.27;;;;;;;;;;5085804;28;20047;-83
2021/08/30 03:56:04;;;;;;;14.70;9.82;;;;;;;;;;5085427;28;20020;-84
2021/08/30 03:58:30;;;;;;;17.30;11.18;;;;;;;;;;5086613;28;20031;-82
2021/08/30 04:01:03;;;;;;;15.52;9.88;;;;;;;;;;5093656;28;20008;-83
2021/08/30 04:03:29;;;;;;;15.32;11.13;;;;;;;;;;5094242;28;20020;-82
2021/08/30 04:05:55;;;;;;;16.15;9.85;;;;;;;;;;5084650;28;20032;-84
2021/08/30 04:08:21;;;;;;;20.25;11.15;;;;;;;;;;5077550;28;20499;-84
2021/08/30 04:10:48;;;;;;;15.15;9.82;;;;;;;;;;5078025;28;20025;-83
2021/08/30 04:13:14;;;;;;;16.15;10.45;;;;;;;;;;5079105;28;20059;-84
2021/08/30 04:15:40;;;;;;;14.95;9.90;;;;;;;;;;5082544;28;20029;-84
2021/08/30 04:18:06;;;;;;;17.33;10.20;;;;;;;;;;5082072;28;20032;-83
2021/08/30 04:20:32;;;;;;;13.90;9.75;;;;;;;;;;5078275;28;20056;-84
2021/08/30 04:22:58;;;;;;;14.85;9.13;;;;;;;;;;5077867;28;20032;-84
2021/08/30 04:25:24;;;;;;;13.15;9.25;;;;;;;;;;5076695;28;20024;-84
2021/08/30 04:27:50;;;;;;;15.57;9.60;;;;;;;;;;5078695;28;20055;-83
2021/08/30 04:30:16;;;;;;;14.07;8.57;;;;;;;;;;5077695;28;20033;-84
2021/08/30 04:32:42;;;;;;;14.30;9.30;;;;;;;;;;5078208;28;20107;-84
2021/08/30 04:35:09;;;;;;;13.23;9.23;;;;;;;;;;5078522;28;20032;-83
2021/08/30 04:37:36;;;;;;;12.80;9.18;;;;;;;;;;5078623;28;20041;-83
2021/08/30 04:40:02;;;;;;;15.60;9.48;;;;;;;;;;5077933;28;20097;-84
2021/08/30 04:42:28;;;;;;;16.60;9.77;;;;;;;;;;5079740;28;20486;-83
2021/08/30 04:44:54;;;;;;;14.13;9.38;;;;;;;;;;5079612;28;20096;-83
2021/08/30 04:47:20;;;;;;;13.45;9.38;;;;;;;;;;5079216;28;20020;-83
2021/08/30 04:49:46;;;;;;;14.65;10.15;;;;;;;;;;5077116;28;20021;-83
2021/08/30 04:52:12;;;;;;;14.70;9.45;;;;;;;;;;5075829;28;20477;-83
2021/08/30 04:54:38;;;;;;;15.95;9.77;;;;;;;;;;5076759;28;20080;-83
2021/08/30 04:57:04;;;;;;;12.98;8.95;;;;;;;;;;5075970;28;20487;-83
2021/08/30 04:59:30;;;;;;;12.23;9.10;;;;;;;;;;5073121;28;20029;-83
2021/08/30 05:01:56;;;;;;;15.18;9.68;;;;;;;;;;5075317;28;20115;-82
2021/08/30 05:04:22;;;;;;;13.18;9.18;;;;;;;;;;5075844;28;20028;-82
2021/08/30 05:06:48;;;;;;;13.43;9.40;;;;;;;;;;5076692;28;20032;-81
2021/08/30 05:09:14;;;;;;;11.70;8.20;;;;;;;;;;5074096;28;20029;-81
2021/08/30 05:11:40;;;;;;;13.60;8.30;;;;;;;;;;5073807;28;20045;-81
2021/08/30 05:14:06;;;;;;;14.07;8.65;;;;;;;;;;5074905;28;20028;-81
2021/08/30 05:16:32;;;;;;;12.25;8.85;;;;;;;;;;5075050;28;20027;-81
2021/08/30 05:18:58;;;;;;;11.68;8.50;;;;;;;;;;5064105;28;20029;-81
2021/08/30 05:21:24;;;;;;;11.00;8.13;;;;;;;;;;5066902;28;20021;-81
2021/08/30 05:23:50;;;;;;;12.52;8.48;;;;;;;;;;5073789;28;20028;-81
2021/08/30 05:26:16;;;;;;;13.68;8.90;;;;;;;;;;5077072;28;20052;-82
2021/08/30 05:28:42;;;;;;;13.82;8.98;;;;;;;;;;5081818;28;20092;-81
2021/08/30 05:31:08;;;;;;;10.43;7.70;;;;;;;;;;5068729;28;20037;-82
2021/08/30 05:33:36;;;;;;;14.30;8.93;;;;;;;;;;5066506;28;20031;-82
2021/08/30 05:36:03;;;;;;;14.77;9.13;;;;;;;;;;5070471;28;20047;-83
2021/08/30 05:38:29;;;;;;;13.27;8.35;;;;;;;;;;5086506;28;20040;-80
2021/08/30 05:40:54;;;;;;;13.68;8.80;;;;;;;;;;5086991;28;20040;-80
2021/08/30 05:43:21;;;;;;;13.27;9.20;;;;;;;;;;5090771;28;20545;-81
2021/08/30 05:45:47;;;;;;;11.35;8.75;;;;;;;;;;5096113;28;20040;-81
2021/08/30 05:48:13;;;;;;;9.90;7.88;;;;;;;;;;5092604;28;20032;-81
2021/08/30 05:50:39;;;;;;;11.90;7.60;;;;;;;;;;5091253;28;20028;-81
2021/08/30 05:53:04;;;;;;;10.57;8.02;;;;;;;;;;5095213;28;20036;-80
2021/08/30 05:55:30;;;;;;;12.43;9.20;;;;;;;;;;5095370;28;20005;-81
2021/08/30 05:57:56;;;;;;;12.98;8.15;;;;;;;;;;5094843;28;20032;-81
2021/08/30 06:00:22;;;;;;;12.75;7.43;;;;;;;;;;5087643;28;20077;-81
2021/08/30 06:02:48;;;;;;;10.05;7.60;;;;;;;;;;5092018;28;20066;-81
2021/08/30 06:05:14;;;;;;;9.82;8.15;;;;;;;;;;5086995;28;20044;-81
2021/08/30 06:07:41;;;;;;;12.93;7.97;;;;;;;;;;5079153;28;20033;-81
2021/08/30 06:10:08;;;;;;;10.10;8.10;;;;;;;;;;5066072;28;20036;-81
2021/08/30 06:12:34;;;;;;;10.52;8.50;;;;;;;;;;5079765;28;20025;-80
2021/08/30 06:15:00;;;;;;;10.90;9.02;;;;;;;;;;5081154;28;20126;-80
2021/08/30 06:17:26;;;;;;;12.52;9.15;;;;;;;;;;5077248;28;20024;-80
2021/08/30 06:19:52;;;;;;;12.85;9.63;;;;;;;;;;5067557;28;20025;-81
2021/08/30 06:22:18;;;;;;;10.95;8.73;;;;;;;;;;5084560;28;20097;-81
2021/08/30 06:24:47;;;;;;;11.73;8.93;;;;;;;;;;5084547;28;20024;-80
2021/08/30 06:27:14;;;;;;;11.77;8.93;;;;;;;;;;5084707;28;20020;-81
2021/08/30 06:29:40;;;;;;;13.85;9.77;;;;;;;;;;5083723;28;20080;-80
2021/08/30 06:32:06;;;;;;;12.88;8.90;;;;;;;;;;5084824;28;20039;-81
2021/08/30 06:34:32;;;;;;;11.40;9.43;;;;;;;;;;5083015;28;20031;-80
2021/08/30 06:36:58;;;;;;;14.07;9.93;;;;;;;;;;5083635;28;20029;-80
2021/08/30 06:39:24;;;;;;;11.55;9.35;;;;;;;;;;5080276;28;20040;-80
2021/08/30 06:41:50;;;;;;;14.27;9.70;;;;;;;;;;5080180;28;20041;-80
2021/08/30 06:44:16;;;;;;;14.55;9.25;;;;;;;;;;5063827;28;20032;-80
2021/08/30 06:46:42;;;;;;;11.98;8.95;;;;;;;;;;5064368;28;20029;-80
2021/08/30 06:49:08;;;;;;;13.02;9.52;;;;;;;;;;5081635;28;20054;-80
2021/08/30 06:51:34;;;;;;;12.48;9.20;;;;;;;;;;5083220;28;20040;-80
2021/08/30 06:54:00;;;;;;;12.80;9.23;;;;;;;;;;5084642;28;20086;-81
2021/08/30 06:56:26;;;;;;;14.88;9.10;;;;;;;;;;5084826;28;20024;-80
2021/08/30 06:58:52;;;;;;;13.88;9.05;;;;;;;;;;5084642;28;20041;-81
2021/08/30 07:01:18;;;;;;;12.30;9.45;;;;;;;;;;5083696;28;20029;-80
2021/08/30 07:03:44;;;;;;;12.20;8.90;;;;;;;;;;5061288;28;20052;-81
2021/08/30 07:06:10;;;;;;;11.73;8.52;;;;;;;;;;5068147;28;20466;-81
2021/08/30 07:08:36;;;;;;;13.20;8.27;;;;;;;;;;5083675;28;20021;-80
2021/08/30 07:11:02;;;;;;;11.88;8.02;;;;;;;;;;5086792;28;20041;-80
2021/08/30 07:13:28;;;;;;;12.77;7.82;;;;;;;;;;5088551;28;20043;-81
2021/08/30 07:15:55;;;;;;;11.23;7.97;;;;;;;;;;5087942;28;20036;-80
2021/08/30 07:18:21;;;;;;;14.85;8.63;;;;;;;;;;5073697;28;20500;-79
2021/08/30 07:20:48;;;;;;;12.32;8.20;;;;;;;;;;5082247;28;20032;-79
2021/08/30 07:23:16;;;;;;;15.50;8.85;;;;;;;;;;5082945;28;20078;-79
2021/08/30 07:25:42;;;;;;;9.90;7.88;;;;;;;;;;5081396;28;20051;-80
2021/08/30 07:28:08;;;;;;;12.60;7.90;;;;;;;;;;5080525;28;20020;-80
2021/08/30 07:30:34;;;;;;;10.45;7.55;;;;;;;;;;5079626;28;20534;-80
2021/08/30 07:33:00;;;;;;;10.27;7.93;;;;;;;;;;5064824;28;20037;-80
2021/08/30 07:35:28;;;;;;;13.30;8.10;;;;;;;;;;5059900;28;20164;-81
2021/08/30 07:37:54;;;;;;;10.63;7.30;;;;;;;;;;5063325;28;20389;-80
2021/08/30 07:40:20;;;;;;;10.52;7.68;;;;;;;;;;5061745;28;20029;-83
2021/08/30 07:42:46;;;;;;;11.13;7.22;;;;;;;;;;5063459;28;20028;-81
2021/08/30 07:45:12;;;;;;;9.38;7.32;;;;;;;;;;5072740;28;20032;-79
2021/08/30 07:47:40;;;;;;;13.13;7.30;;;;;;;;;;5082902;28;20410;-79
2021/08/30 07:50:06;;;;;;;10.80;7.68;;;;;;;;;;5077556;28;20071;-80
2021/08/30 07:52:33;;;;;;;12.05;8.20;;;;;;;;;;5070312;28;20033;-80
2021/08/30 07:54:59;;;;;;;10.57;7.88;;;;;;;;;;5091566;28;20032;-80
2021/08/30 07:57:25;;;;;;;11.98;7.85;;;;;;;;;;5086954;28;20041;-82
2021/08/30 07:59:51;;;;;;;13.00;8.18;;;;;;;;;;5089438;28;20033;-81
2021/08/30 08:02:17;;;;;;;11.55;8.02;;;;;;;;;;5090513;28;20060;-80
2021/08/30 08:04:43;;;;;;;12.73;7.25;;;;;;;;;;5091138;28;20029;-80
2021/08/30 08:07:09;;;;;;;11.93;7.45;;;;;;;;;;5091072;28;20097;-80
2021/08/30 08:09:35;;;;;;;8.63;7.38;;;;;;;;;;5096225;28;20039;-79
2021/08/30 08:12:01;;;;;;;9.88;7.15;;;;;;;;;;5096596;28;20035;-80
2021/08/30 08:14:27;;;;;;;8.27;6.65;;;;;;;;;;5091334;28;20059;-80
2021/08/30 08:16:53;;;;;;;11.45;7.35;;;;;;;;;;5091459;28;20032;-80
2021/08/30 08:19:19;;;;;;;9.07;6.65;;;;;;;;;;5095256;28;20536;-79
2021/08/30 08:21:47;;;;;;;11.02;7.30;;;;;;;;;;5096261;28;20064;-80
2021/08/30 08:24:13;;;;;;;11.48;6.88;;;;;;;;;;5089300;28;20047;-80
2021/08/30 08:26:38;;;;;;;13.25;6.95;;;;;;;;;;5090355;28;20025;-80
2021/08/30 08:29:05;;;;;;;8.32;6.53;;;;;;;;;;5089338;28;20029;-80
2021/08/30 08:31:31;;;;;;;9.20;7.22;;;;;;;;;;5090683;28;20051;-79
2021/08/30 08:33:57;;;;;;;11.18;8.20;;;;;;;;;;5091442;28;20044;-80
2021/08/30 08:36:23;;;;;;;10.02;7.25;;;;;;;;;;5094843;28;20044;-80
2021/08/30 08:38:49;;;;;;;9.52;7.47;;;;;;;;;;5093554;28;20029;-79
2021/08/30 08:41:15;;;;;;;10.52;7.47;;;;;;;;;;5095249;28;20036;-80
2021/08/30 08:43:42;;;;;;;9.95;7.90;;;;;;;;;;5084977;28;20028;-80
2021/08/30 08:46:08;;;;;;;11.02;8.27;;;;;;;;;;5089776;28;20033;-80
2021/08/30 08:48:34;;;;;;;12.57;7.63;;;;;;;;;;5088099;28;20034;-80
2021/08/30 08:51:00;;;;;;;8.73;6.63;;;;;;;;;;5087930;28;20036;-80
2021/08/30 08:53:26;;;;;;;8.10;6.25;;;;;;;;;;5088635;28;20044;-80
2021/08/30 08:55:53;;;;;;;10.32;6.78;;;;;;;;;;5088405;28;20020;-81
2021/08/30 08:58:20;;;;;;;7.68;6.53;;;;;;;;;;5089036;28;20033;-80
2021/08/30 09:01:12;;;;;;;8.98;6.82;;;;;;;;;;5088846;28;20028;-80
2021/08/30 09:03:50;;;;;;;10.10;7.18;;;;;;;;;;5087626;28;20028;-80
2021/08/30 09:06:29;;;;;;;11.25;6.70;;;;;;;;;;5088817;28;20497;-80
2021/08/30 09:09:00;;;;;;;10.07;6.70;;;;;;;;;;5088368;28;20032;-80
2021/08/30 09:11:32;;;;;;;13.18;7.03;;;;;;;;;;5089571;28;20388;-80
2021/08/30 09:13:58;;;;;;;;;;;;;;;;;;5090022;28;20039;-80
2021/08/30 09:16:25;;;;;;;9.35;7.03;;;;;;;;;;5088652;28;19947;-80
2021/08/30 09:19:02;;;;;;;10.40;7.60;;;;;;;;;;5089504;28;20579;-80
2021/08/30 09:21:28;;;;;;;10.18;7.18;;;;;;;;;;5088063;28;20020;-80
2021/08/30 09:23:54;;;;;;;12.07;8.30;;;;;;;;;;5088529;28;20058;-80
2021/08/30 09:26:21;;;;;;;10.70;6.93;;;;;;;;;;5089481;28;20023;-80
2021/08/30 09:28:55;;;;;;;8.27;6.68;;;;;;;;;;5088165;28;20036;-80
2021/08/30 09:31:22;;;;;;;9.05;6.95;;;;;;;;;;5088468;28;20405;-79
2021/08/30 09:33:52;;;;;;;9.20;6.75;;;;;;;;;;5087551;28;20058;-80
2021/08/30 09:36:18;;;;;;;8.30;6.13;;;;;;;;;;5088883;28;20051;-80
2021/08/30 09:38:51;;;;;;;8.90;6.53;;;;;;;;;;5075638;28;20028;-78
2021/08/30 09:41:19;;;;;;;7.95;6.28;;;;;;;;;;5074228;28;20024;-78
2021/08/30 09:43:45;;;;;;;10.90;6.60;;;;;;;;;;5070343;28;20020;-78
2021/08/30 09:46:11;;;;;;;10.05;6.72;;;;;;;;;;5071472;28;20078;-77
2021/08/30 09:48:43;;;;;;;9.40;6.07;;;;;;;;;;5060480;28;20021;-77
2021/08/30 09:51:09;;;;;;;10.68;5.95;;;;;;;;;;5047334;28;20025;-77
2021/08/30 09:53:35;;;;;;;8.73;5.57;;;;;;;;;;5060738;28;20052;-77
2021/08/30 09:56:01;;;;;;;9.25;5.82;;;;;;;;;;5074124;28;20070;-77
2021/08/30 09:58:28;;;;;;;12.73;6.18;;;;;;;;;;5073178;28;20028;-77
2021/08/30 10:00:59;;;;;;;8.05;5.95;;;;;;;;;;5072255;28;20423;-77
2021/08/30 10:03:29;;;;;;;8.50;5.80;;;;;;;;;;5071356;28;20106;-77
2021/08/30 10:05:55;;;;;;;8.52;5.80;;;;;;;;;;5070253;28;20017;-77
2021/08/30 10:08:21;;;;;;;8.80;5.97;;;;;;;;;;5070870;28;20040;-77
2021/08/30 10:10:47;;;;;;;11.15;6.90;;;;;;;;;;5070330;28;20107;-76
2021/08/30 10:13:14;;;;;;;10.20;6.40;;;;;;;;;;5070535;28;20115;-76
2021/08/30 10:15:40;;;;;;;10.40;7.38;;;;;;;;;;5067961;28;20465;-77
2021/08/30 10:18:06;;;;;;;8.73;6.47;;;;;;;;;;5070709;28;20136;-77
2021/08/30 10:20:34;;;;;;;9.27;6.45;;;;;;;;;;5070026;28;20033;-77
2021/08/30 10:23:10;;;;;;;9.00;6.97;;;;;;;;;;5070740;28;20532;-77
2021/08/30 10:25:37;;;;;;;12.05;6.68;;;;;;;;;;5070576;28;20094;-77
2021/08/30 10:28:04;;;;;;;9.48;6.30;;;;;;;;;;5070508;28;20039;-77
2021/08/30 10:30:35;;;;;;;9.70;6.63;;;;;;;;;;5070198;28;20025;-77
2021/08/30 10:33:02;;;;;;;12.25;6.03;;;;;;;;;;5070406;28;20041;-77
2021/08/30 10:35:35;;;;;;;14.90;7.55;;;;;;;;;;5064217;28;20036;-76
2021/08/30 10:38:01;;;;;;;9.18;6.60;;;;;;;;;;5061825;28;20028;-77
2021/08/30 10:40:29;;;;;;;11.43;7.30;;;;;;;;;;5065038;28;20058;-77
2021/08/30 10:43:07;;;;;;;9.88;6.90;;;;;;;;;;5068284;28;20082;-76
2021/08/30 10:45:41;;;;;;;8.85;6.45;;;;;;;;;;5068967;28;20021;-76
2021/08/30 10:48:17;;;;;;;8.18;6.28;;;;;;;;;;5070506;28;20025;-77
2021/08/30 10:50:52;;;;;;;10.90;7.22;;;;;;;;;;5067288;28;20025;-78
2021/08/30 10:53:19;;;;;;;11.68;6.75;;;;;;;;;;5059237;28;20044;-77
2021/08/30 10:55:49;;;;;;;9.77;6.22;;;;;;;;;;5061509;28;20362;-77
2021/08/30 10:58:20;;;;;;;10.13;6.50;;;;;;;;;;5060828;28;20027;-77
2021/08/30 11:00:47;;;;;;;9.00;6.20;;;;;;;;;;5062819;28;20501;-77
2021/08/30 11:03:24;;;;;;;10.88;6.95;;;;;;;;;;5058575;28;20036;-77
2021/08/30 11:05:59;;;;;;;11.07;6.38;;;;;;;;;;5060066;28;20478;-77
2021/08/30 11:08:25;;;;;;;8.75;5.93;;;;;;;;;;5060803;28;20025;-77
2021/08/30 11:10:51;;;;;;;10.38;7.15;;;;;;;;;;5059123;28;20020;-77
2021/08/30 11:13:26;;;;;;;10.15;7.88;;;;;;;;;;5060561;28;20101;-77
2021/08/30 11:15:52;;;;;;;11.52;7.05;;;;;;;;;;5060896;28;20055;-77
2021/08/30 11:18:19;;;;;;;8.52;5.80;;;;;;;;;;5061616;28;20653;-77
2021/08/30 11:20:48;;;;;;;12.13;6.57;;;;;;;;;;5062712;28;20485;-77
2021/08/30 11:23:15;;;;;;;10.73;6.28;;;;;;;;;;5061780;28;20043;-77
2021/08/30 11:25:41;;;;;;;12.23;6.25;;;;;;;;;;5064019;28;20028;-78
2021/08/30 11:28:18;;;;;;;12.30;5.72;;;;;;;;;;5063455;28;20058;-78
2021/08/30 11:30:44;;;;;;;11.63;5.95;;;;;;;;;;5061759;28;20012;-77
2021/08/30 11:33:21;;;;;;;6.95;5.45;;;;;;;;;;5068081;28;20489;-78
2021/08/30 11:35:47;;;;;;;8.85;5.90;;;;;;;;;;5062925;28;20025;-78
2021/08/30 11:38:14;;;;;;;9.57;5.13;;;;;;;;;;5066060;28;20029;-77
2021/08/30 11:40:40;;;;;;;9.02;5.53;;;;;;;;;;5060819;28;20033;-77
2021/08/30 11:43:13;;;;;;;9.88;5.57;;;;;;;;;;5067157;28;20033;-78
2021/08/30 11:45:39;;;;;;;9.57;5.03;;;;;;;;;;5062912;28;20168;-78
2021/08/30 11:48:05;;;;;;;6.30;5.07;;;;;;;;;;5062412;28;20033;-78
2021/08/30 11:50:31;;;;;;;7.85;4.43;;;;;;;;;;5061151;28;20025;-78
2021/08/30 11:52:59;;;;;;;7.10;4.57;;;;;;;;;;5062423;28;20039;-77
2021/08/30 11:55:25;;;;;;;7.90;4.78;;;;;;;;;;5059182;28;20111;-77
2021/08/30 11:58:03;;;;;;;9.45;4.80;;;;;;;;;;5066571;28;20035;-78
2021/08/30 12:00:30;;;;;;;7.40;5.20;;;;;;;;;;5067939;28;20029;-77
2021/08/30 12:02:58;;;;;;;11.23;5.95;;;;;;;;;;5065049;28;20085;-78
2021/08/30 12:05:28;;;;;;;7.53;4.88;;;;;;;;;;5062515;28;20025;-77
2021/08/30 12:07:54;;;;;;;6.88;5.57;;;;;;;;;;5062499;28;20033;-78
2021/08/30 12:10:28;;;;;;;8.63;5.45;;;;;;;;;;5059056;28;20085;-78
2021/08/30 12:13:07;;;;;;;8.20;5.10;;;;;;;;;;5059511;28;20814;-77
2021/08/30 12:15:34;;;;;;;6.35;4.95;;;;;;;;;;5062304;28;20028;-77
2021/08/30 12:18:01;;;;;;;7.13;4.72;;;;;;;;;;5064404;28;20025;-78
2021/08/30 12:20:30;;;;;;;7.50;5.40;;;;;;;;;;5063292;28;20104;-78
2021/08/30 12:23:03;;;;;;;8.88;5.10;;;;;;;;;;5062043;28;20044;-77
2021/08/30 12:25:39;;;;;;;9.90;5.20;;;;;;;;;;5059285;28;20596;-78
2021/08/30 12:28:06;;;;;;;11.07;5.80;;;;;;;;;;5062229;28;20117;-78
2021/08/30 12:30:38;;;;;;;9.30;5.03;;;;;;;;;;5077514;28;20097;-77
2021/08/30 12:33:09;;;;;;;6.32;4.93;;;;;;;;;;5077280;28;20082;-78
2021/08/30 12:35:39;;;;;;;7.57;5.10;;;;;;;;;;5067237;28;20024;-78
2021/08/30 12:38:07;;;;;;;7.75;5.90;;;;;;;;;;5069534;28;20070;-78
2021/08/30 12:40:34;;;;;;;7.45;5.03;;;;;;;;;;5082129;28;20024;-80
2021/08/30 12:43:00;;;;;;;7.72;4.93;;;;;;;;;;5080384;28;20449;-78
2021/08/30 12:45:26;;;;;;;5.90;4.70;;;;;;;;;;5083911;28;20021;-78
2021/08/30 12:47:52;;;;;;;6.93;5.40;;;;;;;;;;5083082;28;20056;-80
2021/08/30 12:50:19;;;;;;;8.35;5.90;;;;;;;;;;5072613;28;20024;-79
2021/08/30 12:52:45;;;;;;;8.88;5.75;;;;;;;;;;5068949;28;20032;-76
2021/08/30 12:55:11;;;;;;;10.43;5.22;;;;;;;;;;5069922;28;20033;-79
2021/08/30 12:57:37;;;;;;;6.03;4.88;;;;;;;;;;5074531;28;20078;-79
2021/08/30 13:00:04;;;;;;;7.47;5.22;;;;;;;;;;5073752;28;20028;-79
2021/08/30 13:02:30;;;;;;;6.43;4.93;;;;;;;;;;5055991;28;20043;-78
2021/08/30 13:04:56;;;;;;;7.03;4.28;;;;;;;;;;5075300;28;20050;-78
2021/08/30 13:07:22;;;;;;;7.55;4.45;;;21.70;80.10;;;;;;5074254;28;20048;-78
2021/08/30 13:09:48;;;;;;;7.63;4.78;;;18.80;99.90;;;;;;5077708;28;20074;-77
2021/08/30 13:12:13;;;;;;;12.05;4.80;;;18.90;99.90;;;;;;5076096;28;20115;-75
2021/08/30 13:14:39;;;;;;;7.40;4.80;;;18.20;99.90;;;;;;5069694;28;20115;-78
2021/08/30 13:17:05;;;;;;;9.82;5.22;;;18.50;99.90;;;;;;5074899;28;20497;-78
2021/08/30 13:19:30;;;;;;;8.80;4.53;;;18.30;99.90;;;;;;5076255;28;20032;-78
2021/08/30 13:21:56;;;;;;;6.53;5.50;;;18.80;99.90;;;;;;5074786;28;20046;-77
2021/08/30 13:24:21;;;;;;;7.22;5.30;;;18.90;99.90;;;;;;5072214;28;20041;-77
2021/08/30 13:26:47;;;;;;;7.78;5.25;;;19.70;99.90;;;;;;5071913;28;20036;-77
2021/08/30 13:29:13;;;;;;;8.18;5.38;;;19.40;99.90;;;;;;5069944;28;20078;-78
2021/08/30 13:31:38;;;;;;;7.60;5.20;;;20.00;99.90;;;;;;5070155;28;20447;-78
2021/08/30 13:34:04;;;;;;;8.40;4.57;;;20.70;99.90;;;;;;5070829;28;20024;-78
2021/08/30 13:36:29;;;;;;;8.65;4.78;;;21.00;99.90;;;;;;5072800;28;20052;-78
2021/08/30 13:38:58;;;;;;;8.55;4.68;;;;;;;;;;5071477;28;20115;-79
2021/08/30 13:41:24;;;;;;;6.55;4.40;;;;;;;;;;5054764;28;20413;-77
2021/08/30 13:43:52;;;;;;;6.95;4.57;;;;;;;;;;5069383;28;20033;-77
2021/08/30 13:46:18;;;;;;;6.97;4.03;;;;;;;;;;5067739;28;20055;-77
2021/08/30 13:48:44;;;;;;;5.50;4.68;;;;;;;;;;5050200;28;20035;-77
2021/08/30 13:51:11;;;;;;;6.25;4.30;;;;;;;;;;5069835;28;20031;-78
2021/08/30 13:53:37;;;;;;;5.78;4.22;;;;;;;;;;5067829;28;20108;-77
2021/08/30 13:56:03;;;;;;;6.70;4.38;;;;;;;;;;5069494;28;20131;-77
2021/08/30 13:58:29;;;;;;;8.13;4.68;;;;;;;;;;5068562;28;20094;-77
2021/08/30 14:00:55;;;;;;;8.43;5.32;;;;;;;;;;5068815;28;20028;-78
2021/08/30 14:03:22;;;;;;;8.85;4.43;;;;;;;;;;5069229;28;20070;-78
2021/08/30 14:05:48;;;;;;;9.18;4.97;;;;;;;;;;5069198;28;20036;-78
2021/08/30 14:08:14;;;;;;;5.05;4.13;;;;;;;;;;5069254;28;20025;-77
2021/08/30 14:10:40;;;;;;;9.43;5.22;;;;;;;;;;5069031;28;20437;-77
2021/08/30 14:13:06;;;;;;;6.50;4.85;;;;;;;;;;5068222;28;20536;-77
2021/08/30 14:15:34;;;;;;;9.60;5.63;;;;;;;;;;5069262;28;20531;-77
2021/08/30 14:18:00;;;;;;;7.80;5.25;;;;;;;;;;5070031;28;20751;-77
2021/08/30 14:20:26;;;;;;;10.73;5.35;;;;;;;;;;5071580;28;20047;-77
2021/08/30 14:22:52;;;;;;;6.00;5.00;;;;;;;;;;5072337;28;20436;-77
2021/08/30 14:25:18;;;;;;;8.05;5.45;;;;;;;;;;5072030;28;20078;-77
2021/08/30 14:27:45;;;;;;;6.65;5.63;;;;;;;;;;5072682;28;20028;-77
2021/08/30 14:30:12;;;;;;;9.50;6.13;;;;;;;;;;5072261;28;20025;-77
2021/08/30 14:32:38;;;;;;;9.07;7.15;;;;;;;;;;5074667;28;20711;-78
2021/08/30 14:35:04;;;;;;;7.97;5.97;;;;;;;;;;5075619;28;20092;-79